Time;durP1;ratioP1;P1;durP2;ratioP2;P2;SDS_P1;SDS_P2;PMS_P1;PMS_P2;Temp;Humidity;BMP_temperature;BMP_pressure;BME280_temperature;BME280_humidity;BME280_pressure;Samples;Min_cycle;Max_cycle;Signal;HPM_P1;HPM_P2
2023/10/06 00:02:33;;;;;;;5.93;4.05;;;;;;;20.62;66.56;101089.81;10336512;28;97004;-78
2023/10/06 00:07:40;;;;;;;5.85;4.38;;;;;;;20.52;66.75;101080.66;10335700;28;96709;-78
2023/10/06 00:12:48;;;;;;;6.28;4.50;;;;;;;20.29;67.49;101085.72;10335657;28;96750;-78
2023/10/06 00:17:55;;;;;;;6.00;3.80;;;;;;;20.26;67.46;101077.91;10333225;28;96832;-78
2023/10/06 00:23:05;;;;;;;6.53;4.28;;;;;;;20.10;67.99;101069.19;10335276;28;99008;-78
2023/10/06 00:28:17;;;;;;;5.65;3.92;;;;;;;20.10;67.55;101074.53;10334722;28;96669;-79
2023/10/06 00:33:21;;;;;;;5.93;4.03;;;;;;;20.05;67.95;101076.66;10335809;28;97174;-78
2023/10/06 00:38:24;;;;;;;6.35;4.07;;;;;;;19.89;68.67;101062.56;10334264;28;96716;-79
2023/10/06 00:43:36;;;;;;;8.03;4.47;;;;;;;19.80;68.59;101067.66;10333730;28;96673;-78
2023/10/06 00:48:42;;;;;;;5.53;4.13;;;;;;;19.79;68.25;101060.59;10335119;28;97086;-78
2023/10/06 00:53:51;;;;;;;6.68;4.20;;;;;;;19.72;68.46;101056.63;10335394;28;96948;-78
2023/10/06 00:59:11;;;;;;;7.53;4.40;;;;;;;19.73;68.38;101064.53;10354640;22;96903;-78
2023/10/06 01:04:24;;;;;;;5.75;4.05;;;;;;;19.65;68.50;101066.81;10415226;27;97288;-78
2023/10/06 01:09:33;;;;;;;7.50;4.07;;;;;;;19.50;69.03;101070.47;10415824;28;97321;-78
2023/10/06 01:14:58;;;;;;;7.47;4.13;;;;;;;19.38;69.50;101071.22;10404179;28;97379;-78
2023/10/06 01:20:05;;;;;;;5.88;4.10;;;;;;;19.25;69.05;101064.91;10416378;27;96718;-78
2023/10/06 01:25:13;;;;;;;6.95;4.20;;;;;;;19.25;69.44;101060.44;10416932;27;96573;-78
2023/10/06 01:30:19;;;;;;;6.40;4.35;;;;;;;19.09;69.62;101070.34;10415965;28;96796;-79
2023/10/06 01:35:23;;;;;;;5.72;4.18;;;;;;;19.10;69.09;101061.41;10416034;28;96605;-78
2023/10/06 01:40:43;;;;;;;7.15;3.95;;;;;;;19.11;68.65;101056.94;10440560;27;97246;-78
2023/10/06 01:45:47;;;;;;;5.15;3.30;;;;;;;19.10;68.92;101065.88;10458487;27;96671;-78
2023/10/06 01:50:54;;;;;;;5.93;3.57;;;;;;;19.00;69.43;101062.06;10457281;27;96951;-78
2023/10/06 01:56:02;;;;;;;6.57;3.78;;;;;;;19.01;69.21;101059.31;10455666;27;97259;-78
2023/10/06 02:01:07;;;;;;;7.15;3.67;;;;;;;18.91;68.88;101065.28;10455592;27;96963;-78
2023/10/06 02:06:16;;;;;;;7.47;3.65;;;;;;;18.76;69.99;101063.56;10442316;27;97351;-78
2023/10/06 02:11:30;;;;;;;4.40;3.30;;;;;;;18.66;70.49;101055.25;10414874;28;97183;-78
2023/10/06 02:16:35;;;;;;;3.70;2.70;;;;;;;18.66;70.93;101057.06;10443650;27;97872;-79
2023/10/06 02:21:42;;;;;;;6.68;4.13;;;;;;;18.55;71.16;101055.03;10414561;28;96889;-78
2023/10/06 02:26:57;;;;;;;5.50;3.70;;;;;;;18.60;70.33;101052.09;10414515;28;96658;-79
2023/10/06 02:32:06;;;;;;;4.90;3.30;;;;;;;18.49;71.07;101035.91;10442958;27;96707;-78
2023/10/06 02:37:12;;;;;;;5.65;3.47;;;;;;;18.47;70.39;101029.81;10456657;27;97128;-79
2023/10/06 02:42:19;;;;;;;6.97;3.60;;;;;;;18.37;71.43;101034.78;10456042;27;97070;-78
2023/10/06 02:47:27;;;;;;;5.38;3.35;;;;;;;18.34;71.11;101031.44;10454216;27;97304;-78
2023/10/06 02:52:37;;;;;;;5.65;3.78;;;;;;;18.34;71.38;101023.44;10412447;27;96563;-79
2023/10/06 02:57:50;;;;;;;6.03;3.65;;;;;;;18.34;71.72;101018.97;10412763;27;97106;-79
2023/10/06 03:02:56;;;;;;;4.95;3.42;;;;;;;18.19;71.88;101019.88;10413990;27;96971;-78
2023/10/06 03:08:00;;;;;;;9.57;3.70;;;;;;;18.29;71.81;101020.19;10412682;28;97222;-78
2023/10/06 03:13:09;;;;;;;5.95;3.65;;;;;;;18.28;72.17;101021.16;10412949;28;97018;-78
2023/10/06 03:18:14;;;;;;;6.03;3.88;;;;;;;18.31;71.83;101013.84;10413006;28;96673;-78
2023/10/06 03:23:26;;;;;;;6.60;4.10;;;;;;;18.24;72.15;101008.94;10443967;27;96670;-78
2023/10/06 03:28:33;;;;;;;5.85;3.65;;;;;;;18.25;72.14;101010.69;10454931;27;96640;-78
2023/10/06 03:33:39;;;;;;;5.88;3.60;;;;;;;18.14;72.80;101016.63;10454676;27;96842;-78
2023/10/06 03:38:52;;;;;;;7.10;4.00;;;;;;;18.04;73.49;101005.63;10435252;27;96704;-78
2023/10/06 03:44:00;;;;;;;4.63;3.40;;;;;;;18.01;73.15;101008.50;10411220;28;96726;-78
2023/10/06 03:49:04;;;;;;;6.88;4.53;;;;;;;18.03;73.57;101011.94;10411824;28;97115;-78
2023/10/06 03:54:09;;;;;;;6.33;3.20;;;;;;;18.04;73.16;101000.31;10416686;27;96710;-78
2023/10/06 03:59:16;;;;;;;;;;;;;;;18.47;71.41;101003.16;10453594;27;96766;-78
2023/10/06 04:04:22;;;;;;;6.20;4.00;;;;;;;18.65;70.19;101000.22;10453484;27;97061;-79
2023/10/06 04:09:28;;;;;;;6.47;4.07;;;;;;;18.78;69.75;101001.16;10369923;28;96772;-78
2023/10/06 04:14:33;;;;;;;7.60;3.95;;;;;;;18.94;68.74;100996.63;10403959;27;96608;-78
2023/10/06 04:19:36;;;;;;;;;;;;;;;19.06;68.06;100998.50;10417347;27;97516;-78
2023/10/06 04:24:41;;;;;;;4.53;3.40;;;;;;;19.06;68.04;101011.00;10418914;27;97070;-78
2023/10/06 04:29:48;;;;;;;4.47;3.25;;;;;;;19.18;67.24;101002.25;10436855;27;97131;-78
2023/10/06 04:34:55;;;;;;;4.93;3.55;;;;;;;19.29;66.74;100995.25;10458813;27;97013;-78
2023/10/06 04:39:58;;;;;;;5.82;3.53;;;;;;;19.07;67.33;100994.03;10459181;27;96897;-78
2023/10/06 04:45:12;;;;;;;5.13;3.95;;;;;;;19.12;67.05;100998.16;10459222;27;97162;-78
2023/10/06 04:50:16;;;;;;;6.38;3.60;;;;;;;18.75;68.48;100998.69;10458080;27;96800;-78
2023/10/06 04:55:21;;;;;;;5.80;3.50;;;;;;;18.72;68.22;100998.03;10417481;27;96775;-78
2023/10/06 05:00:27;;;;;;;5.07;3.25;;;;;;;18.68;68.27;101004.53;10416341;28;98815;-78
2023/10/06 05:05:33;;;;;;;5.38;3.17;;;;;;;18.62;68.51;101004.88;10417853;27;97476;-78
2023/10/06 05:10:39;;;;;;;5.18;3.40;;;;;;;18.33;69.90;101003.06;10417231;28;97447;-78
2023/10/06 05:15:44;;;;;;;5.32;3.38;;;;;;;18.28;70.69;101007.81;10416633;27;96778;-78
2023/10/06 05:20:48;;;;;;;4.25;3.05;;;;;;;18.29;70.46;101010.41;10434775;27;96686;-78
2023/10/06 05:25:51;;;;;;;5.38;3.20;;;;;;;17.98;71.59;101016.66;10457447;27;96635;-78
2023/10/06 05:30:56;;;;;;;5.13;2.92;;;;;;;18.07;71.38;101017.94;10456689;27;97236;-78
2023/10/06 05:36:00;;;;;;;5.65;3.08;;;;;;;18.14;70.59;101014.81;10457086;27;96724;-78
2023/10/06 05:41:05;;;;;;;4.93;2.90;;;;;;;18.28;69.68;101015.81;10457328;27;96698;-78
2023/10/06 05:46:11;;;;;;;6.22;3.38;;;;;;;18.43;68.87;101013.09;10457107;27;97187;-78
2023/10/06 05:51:21;;;;;;;5.13;3.38;;;;;;;18.35;69.52;101023.34;10419407;27;96948;-78
2023/10/06 05:56:26;;;;;;;4.50;3.22;;;;;;;18.24;69.78;101028.47;10406872;27;96767;-78
2023/10/06 06:01:31;;;;;;;5.20;3.25;;;;;;;18.30;69.66;101022.75;10415490;28;97781;-78
2023/10/06 06:06:36;;;;;;;4.60;3.22;;;;;;;18.43;68.82;101013.09;10414756;27;96819;-78
2023/10/06 06:11:39;;;;;;;5.30;3.40;;;;;;;18.68;67.43;101026.69;10415182;27;97169;-78
2023/10/06 06:16:44;;;;;;;5.13;3.30;;;;;;;18.86;67.11;101028.25;10413155;28;96693;-78
2023/10/06 06:21:49;;;;;;;6.53;3.50;;;;;;;18.94;66.48;101025.09;10413965;28;96665;-78
2023/10/06 06:26:55;;;;;;;4.75;3.47;;;;;;;18.88;66.71;101033.47;10415590;27;97278;-79
2023/10/06 06:32:11;;;;;;;5.15;2.85;;;;;;;19.02;66.11;101036.16;10413570;28;97307;-78
2023/10/06 06:37:15;;;;;;;4.30;3.10;;;;;;;19.05;65.56;101036.81;10414208;28;97047;-78
2023/10/06 06:42:19;;;;;;;4.82;3.10;;;;;;;19.14;65.32;101043.41;10412904;27;96680;-78
2023/10/06 06:47:26;;;;;;;4.43;3.05;;;;;;;19.02;65.98;101034.34;10413994;27;96602;-79
2023/10/06 06:52:29;;;;;;;5.72;3.08;;;;;;;19.11;65.46;101027.59;10413810;27;96685;-78
2023/10/06 06:57:33;;;;;;;10.70;5.00;;;;;;;19.18;65.12;101043.09;10413185;27;96941;-78
2023/10/06 07:02:37;;;;;;;5.13;3.25;;;;;;;19.18;65.13;101037.75;10413459;27;96772;-78
2023/10/06 07:07:42;;;;;;;;;;;;;;;19.23;64.82;101045.50;10412479;28;97051;-78
2023/10/06 07:12:47;;;;;;;5.13;3.30;;;;;;;19.38;64.21;101046.31;10413565;28;97310;-79
2023/10/06 07:17:54;;;;;;;4.40;2.83;;;;;;;19.44;63.90;101060.16;10412801;27;96828;-78
2023/10/06 07:23:00;;;;;;;4.97;3.03;;;;;;;19.78;62.96;101057.09;10412653;28;97364;-78
2023/10/06 07:28:07;;;;;;;4.28;2.92;;;;;;;19.99;62.15;101060.16;10411793;27;96856;-79
2023/10/06 07:33:12;;;;;;;5.18;2.92;;;;;;;20.03;61.90;101064.38;10412348;28;96747;-79
2023/10/06 07:38:19;;;;;;;4.70;3.15;;;;;;;20.03;61.41;101069.72;10412611;27;96718;-78
2023/10/06 07:43:23;;;;;;;4.82;2.72;;;;;;;20.39;60.29;101067.28;10412754;28;96774;-78
2023/10/06 07:48:29;;;;;;;4.30;2.83;;;;;;;21.04;59.36;101076.16;10412124;28;97365;-78
2023/10/06 07:53:35;;;;;;;4.88;3.00;;;;;;;21.15;58.08;101068.22;10415900;27;96693;-78
2023/10/06 07:58:41;;;;;;;5.47;3.03;;;;;;;21.73;57.07;101073.84;10417729;28;97502;-79
2023/10/06 08:03:46;;;;;;;4.93;2.50;;;;;;;22.88;54.68;101083.94;10418809;28;96976;-79
2023/10/06 08:08:53;;;;;;;4.65;2.63;;;;;;;23.76;52.56;101075.97;10421616;27;96979;-79
2023/10/06 08:13:56;;;;;;;3.67;2.53;;;;;;;24.25;50.11;101080.88;10460468;27;97196;-79
2023/10/06 08:19:01;;;;;;;3.90;2.80;;;;;;;25.27;48.19;101080.13;10460146;27;96898;-79
2023/10/06 08:24:06;;;;;;;3.50;2.42;;;;;;;26.29;46.12;101079.88;10459727;27;97210;-79
2023/10/06 08:29:09;;;;;;;4.18;2.63;;;;;;;26.32;45.33;101076.88;10459430;27;97838;-79
2023/10/06 08:34:14;;;;;;;3.45;2.28;;;;;;;26.28;43.67;101083.56;10460588;27;96715;-79
2023/10/06 08:39:20;;;;;;;4.10;2.47;;;;;;;27.08;42.43;101092.25;10459399;27;97094;-79
2023/10/06 08:44:24;;;;;;;2.90;2.30;;;;;;;27.73;42.46;101075.97;10458760;27;96862;-79
2023/10/06 08:49:29;;;;;;;4.40;2.75;;;;;;;28.31;40.94;101088.16;10448308;27;96886;-79
2023/10/06 08:54:34;;;;;;;3.22;2.30;;;;;;;26.74;42.57;101076.50;10380007;27;96819;-79
2023/10/06 08:59:39;;;;;;;5.70;2.90;;;;;;;26.07;44.36;101075.59;10376892;27;96841;-79
2023/10/06 09:04:46;;;;;;;3.58;2.70;;;;;;;26.31;44.01;101069.78;10416704;28;96751;-79
2023/10/06 09:09:51;;;;;;;3.90;2.90;;;;;;;27.62;41.66;101076.97;10416800;28;97116;-79
2023/10/06 09:14:57;;;;;;;3.38;2.35;;;;;;;28.09;40.03;101061.50;10416668;27;97175;-79
2023/10/06 09:20:02;;;;;;;3.00;2.30;;;;;;;28.33;39.27;101067.19;10416898;27;96844;-80
2023/10/06 09:25:22;;;;;;;3.13;2.30;;;;;;;28.67;38.55;101064.63;10417241;28;97206;-80
2023/10/06 09:30:28;;;;;;;5.82;2.80;;;;;;;29.37;37.47;101060.88;10415792;28;96754;-80
2023/10/06 09:35:42;;;;;;;3.17;2.10;;;;;;;29.02;37.13;101059.16;10416530;27;97316;-80
2023/10/06 09:40:47;;;;;;;4.63;2.60;;;;;;;29.69;36.80;101048.38;10414630;28;97216;-80
2023/10/06 09:45:55;;;;;;;2.97;2.35;;;;;;;29.36;36.52;101048.34;10415617;28;96717;-79
2023/10/06 09:51:02;;;;;;;2.75;2.17;;;;;;;29.39;36.59;101051.59;10418619;27;96859;-80
2023/10/06 09:56:08;;;;;;;5.13;3.00;;;;;;;28.92;37.58;101040.31;10457260;27;96966;-80
2023/10/06 10:01:16;;;;;;;4.47;2.53;;;;;;;28.91;37.05;101037.75;10456190;27;96883;-79
2023/10/06 10:06:23;;;;;;;4.93;2.63;;;;;;;29.23;36.32;101039.78;10456988;27;96712;-79
2023/10/06 10:11:31;;;;;;;3.83;2.15;;;;;;;29.56;35.79;101022.69;10423544;27;97208;-80
2023/10/06 10:16:58;;;;;;;3.20;2.47;;;;;;;30.11;34.60;101023.91;10414451;27;96649;-80
2023/10/06 10:22:03;;;;;;;4.45;2.80;;;;;;;31.55;32.95;101024.78;10414382;28;96749;-80
2023/10/06 10:27:13;;;;;;;4.70;2.50;;;;;;;31.08;33.00;101019.31;10414874;27;96939;-81
2023/10/06 10:32:22;;;;;;;3.70;2.05;;;;;;;31.50;32.50;101008.16;10455627;27;97106;-80
2023/10/06 10:37:28;;;;;;;4.78;2.33;;;;;;;30.91;32.40;101004.91;10455766;27;96683;-79
2023/10/06 10:42:42;;;;;;;2.70;1.98;;;;;;;30.28;33.27;100993.88;10454866;27;97324;-79
2023/10/06 10:47:46;;;;;;;2.75;1.65;;;;;;;30.31;33.71;100992.72;10454110;27;96749;-79
2023/10/06 10:52:54;;;;;;;3.47;2.20;;;;;;;30.56;33.15;100986.25;10455046;27;98011;-80
2023/10/06 10:57:57;;;;;;;3.10;1.77;;;;;;;30.60;32.13;100989.47;10455246;27;97433;-80
2023/10/06 11:03:04;;;;;;;2.17;1.83;;;;;;;31.31;31.42;100972.19;10492773;27;97064;-80
2023/10/06 11:08:11;;;;;;;2.53;2.00;;;;;;;31.60;31.24;100981.59;10497646;27;96793;-80
2023/10/06 11:13:19;;;;;;;4.80;1.77;;;;;;;31.86;31.41;100971.25;10497018;27;96865;-80
2023/10/06 11:18:23;;;;;;;2.63;1.58;;;;;;;31.26;31.61;100974.59;10496140;27;97010;-80
2023/10/06 11:23:42;;;;;;;2.33;1.65;;;;;;;31.66;31.44;100969.97;10495452;27;96701;-80
2023/10/06 11:28:45;;;;;;;2.47;1.60;;;;;;;30.80;31.71;100961.78;10496455;27;96750;-80
2023/10/06 11:33:49;;;;;;;5.18;1.95;;;;;;;31.12;31.16;100963.56;10495342;27;96571;-79
2023/10/06 11:38:53;;;;;;;3.47;1.77;;;;;;;31.29;30.63;100957.06;10496399;27;97002;-80
2023/10/06 11:44:02;;;;;;;3.28;1.70;;;;;;;31.89;30.54;100955.38;10494957;27;96973;-80
2023/10/06 11:49:10;;;;;;;2.40;1.90;;;;;;;31.74;29.95;100942.69;10489389;27;96840;-80
2023/10/06 11:54:16;;;;;;;2.67;1.90;;;;;;;32.02;30.11;100935.72;10493149;27;96742;-80
2023/10/06 11:59:20;;;;;;;3.50;1.60;;;;;;;32.25;30.00;100928.41;10495367;27;96677;-80
2023/10/06 12:04:30;;;;;;;2.28;1.50;;;;;;;31.99;29.71;100917.03;10495485;27;97090;-80
2023/10/06 12:09:35;;;;;;;2.95;1.70;;;;;;;32.71;29.45;100913.66;10494626;27;97141;-80
2023/10/06 12:14:38;;;;;;;2.40;1.52;;;;;;;32.71;29.20;100901.88;10494349;27;96568;-80
2023/10/06 12:19:43;;;;;;;1.90;1.60;;;;;;;33.03;29.10;100899.69;10495157;27;97360;-80
2023/10/06 12:24:50;;;;;;;2.42;1.60;;;;;;;32.81;29.70;100895.13;10484104;27;97097;-80
2023/10/06 12:29:55;;;;;;;3.65;1.77;;;;;;;32.98;29.51;100887.66;10451363;27;97515;-80
2023/10/06 12:34:59;;;;;;;2.45;1.75;;;;;;;32.97;29.09;100875.03;10453298;27;97009;-80
2023/10/06 12:40:08;;;;;;;2.17;1.80;;;;;;;33.37;29.57;100877.22;10456678;27;97139;-80
2023/10/06 12:45:17;;;;;;;2.80;1.80;;;;;;;33.75;28.58;100866.94;10460039;27;97047;-80
2023/10/06 12:50:23;;;;;;;2.47;1.88;;;;;;;33.54;28.59;100847.84;10460090;27;97560;-80
2023/10/06 12:55:28;;;;;;;2.90;1.77;;;;;;;33.52;28.97;100850.75;10458920;27;96809;-80
2023/10/06 13:00:33;;;;;;;2.85;2.03;;;;;;;34.10;28.62;100841.44;10457705;27;97534;-80
2023/10/06 13:05:38;;;;;;;3.83;1.83;;;;;;;33.76;28.18;100831.28;10457607;27;97127;-80
2023/10/06 13:10:44;;;;;;;2.45;1.83;;;;;;;34.67;27.80;100836.63;10456827;27;97141;-80
2023/10/06 13:15:48;;;;;;;2.97;1.90;;;;;;;34.75;27.59;100827.41;10459107;27;97272;-81
2023/10/06 13:20:52;;;;;;;3.28;1.75;;;;;;;34.63;27.49;100818.09;10458188;27;96748;-81
2023/10/06 13:25:58;;;;;;;7.07;1.90;;;;;;;34.29;27.39;100818.91;10458309;27;96726;-80
2023/10/06 13:31:05;;;;;;;3.17;1.90;;;;;;;34.16;27.53;100816.09;10458363;22;98944;-80
2023/10/06 13:36:11;;;;;;;2.72;1.75;;;;;;;34.25;27.67;100804.78;10489155;27;96788;-80
2023/10/06 13:41:17;;;;;;;3.08;1.77;;;;;;;34.46;27.33;100799.28;10458294;27;96683;-81
2023/10/06 13:46:20;;;;;;;3.05;1.88;;;;;;;34.15;27.64;100793.38;10457785;27;97343;-80
2023/10/06 13:51:23;;;;;;;2.80;1.80;;;;;;;34.31;27.79;100776.66;10479875;27;96789;-80
2023/10/06 13:56:28;;;;;;;2.63;2.00;;;;;;;33.10;28.92;100782.47;10498387;27;96791;-80
2023/10/06 14:01:34;;;;;;;3.13;1.80;;;;;;;32.59;30.07;100776.13;10499127;27;97108;-80
2023/10/06 14:06:39;;;;;;;3.72;1.98;;;;;;;32.52;30.14;100769.75;10498436;27;96631;-80
2023/10/06 14:11:43;;;;;;;2.50;2.05;;;;;;;32.50;30.57;100765.53;10499022;27;97461;-80
2023/10/06 14:16:47;;;;;;;4.10;2.22;;;;;;;32.08;30.77;100761.53;10498802;27;97193;-80
2023/10/06 14:21:51;;;;;;;2.83;2.05;;;;;;;32.18;30.95;100761.28;10498505;27;96649;-80
2023/10/06 14:26:56;;;;;;;3.45;2.00;;;;;;;32.65;30.08;100755.47;10472538;27;96810;-80
2023/10/06 14:32:18;;;;;;;3.15;1.88;;;;;;;33.28;29.47;100752.84;10456605;27;96810;-80
2023/10/06 14:37:38;;;;;;;2.97;2.03;;;;;;;33.39;29.21;100749.59;10455539;27;96774;-80
2023/10/06 14:48:06;;;;;;;2.45;1.67;;;;;;;33.29;29.60;100739.03;10449245;27;97306;-80
2023/10/06 14:53:11;;;;;;;4.03;2.22;;;;;;;33.77;29.38;100733.78;10454950;27;96574;-80
2023/10/06 14:58:16;;;;;;;2.30;1.70;;;;;;;33.89;28.72;100724.84;10455565;27;97257;-80
2023/10/06 15:03:19;;;;;;;3.38;2.08;;;;;;;34.47;28.24;100718.94;10454551;27;96821;-80
2023/10/06 15:08:23;;;;;;;3.33;2.22;;;;;;;34.15;28.06;100714.13;10455037;27;96647;-80
2023/10/06 15:13:28;;;;;;;3.28;2.03;;;;;;;34.57;27.76;100713.13;10454657;27;96707;-80
2023/10/06 15:18:31;;;;;;;2.53;1.67;;;;;;;34.35;27.90;100704.13;10496100;27;96849;-80
2023/10/06 15:23:35;;;;;;;2.10;1.67;;;;;;;34.22;28.10;100698.63;10497470;27;96826;-80
2023/10/06 15:28:41;;;;;;;2.40;1.83;;;;;;;33.97;28.14;100694.69;10456702;27;96914;-80
2023/10/06 15:33:45;;;;;;;2.90;1.65;;;;;;;33.59;28.53;100687.88;10454378;27;96906;-80
2023/10/06 15:38:48;;;;;;;2.53;2.17;;;;;;;33.35;28.76;100678.19;10453114;27;97368;-80
2023/10/06 15:43:53;;;;;;;2.25;1.60;;;;;;;33.01;28.99;100672.66;10453990;27;97473;-80
2023/10/06 15:48:58;;;;;;;3.30;2.08;;;;;;;32.88;28.86;100671.69;10454447;27;97276;-80
2023/10/06 15:54:05;;;;;;;3.45;1.90;;;;;;;32.92;29.16;100670.22;10453964;27;96946;-80
2023/10/06 15:59:13;;;;;;;2.65;2.03;;;;;;;32.61;29.24;100658.75;10453253;27;96812;-80
2023/10/06 16:04:19;;;;;;;3.17;2.10;;;;;;;32.57;29.70;100660.19;10453673;27;96817;-80
2023/10/06 16:09:23;;;;;;;3.55;2.08;;;;;;;32.44;30.20;100647.25;10454010;27;96682;-80
2023/10/06 16:14:28;;;;;;;2.78;1.95;;;;;;;32.22;30.46;100653.66;10458011;27;96830;-80
2023/10/06 16:19:32;;;;;;;3.15;1.90;;;;;;;32.18;30.81;100660.50;10459913;27;97240;-80
2023/10/06 16:24:35;;;;;;;3.30;2.30;;;;;;;31.92;30.83;100650.09;10455476;27;96775;-80
2023/10/06 16:29:40;;;;;;;3.17;1.98;;;;;;;31.91;30.88;100653.00;10416328;28;96895;-80
2023/10/06 16:34:43;;;;;;;4.38;2.25;;;;;;;31.63;31.10;100652.78;10417851;28;97343;-79
2023/10/06 16:39:47;;;;;;;4.50;2.42;;;;;;;31.66;30.70;100657.00;10429519;27;96730;-79
2023/10/06 16:44:52;;;;;;;2.70;2.03;;;;;;;31.59;31.03;100656.03;10459221;27;96834;-79
2023/10/06 16:49:57;;;;;;;4.82;2.17;;;;;;;31.68;31.23;100657.66;10459629;27;96734;-79
2023/10/06 16:55:01;;;;;;;2.55;1.77;;;;;;;31.61;30.84;100654.84;10458843;27;96779;-80
2023/10/06 17:00:09;;;;;;;3.38;1.80;;;;;;;31.50;31.28;100646.25;10459967;27;96764;-79
2023/10/06 17:05:13;;;;;;;3.22;1.85;;;;;;;31.47;30.91;100649.38;10459942;27;97122;-79
2023/10/06 17:10:18;;;;;;;2.28;1.92;;;;;;;31.30;31.49;100649.50;10458902;27;97153;-80
2023/10/06 17:15:23;;;;;;;3.03;1.88;;;;;;;31.29;31.79;100658.72;10482744;27;97184;-79
2023/10/06 17:20:28;;;;;;;2.25;1.63;;;;;;;31.19;31.52;100660.81;10499705;27;96724;-79
2023/10/06 17:25:33;;;;;;;3.20;2.30;;;;;;;30.99;32.16;100664.22;10487160;27;96667;-79
2023/10/06 17:30:37;;;;;;;3.42;1.70;;;;;;;30.79;32.42;100665.69;10466782;27;96890;-79
2023/10/06 17:35:41;;;;;;;3.95;2.45;;;;;;;30.37;35.05;100665.25;10500769;27;96923;-79
2023/10/06 17:40:44;;;;;;;4.90;2.08;;;;;;;29.98;36.19;100685.06;10499938;27;96763;-79
2023/10/06 17:45:49;;;;;;;3.30;2.10;;;;;;;29.59;37.35;100677.88;10499941;27;97323;-79
2023/10/06 17:50:53;;;;;;;3.88;2.00;;;;;;;29.29;38.73;100681.25;10484491;27;96679;-79
2023/10/06 17:55:56;;;;;;;;;;;;;;;28.83;41.97;100694.38;10458548;27;96709;-79
2023/10/06 18:01:01;;;;;;;3.87;2.40;;;;;;;28.63;40.72;100695.72;10457016;27;97033;-79
2023/10/06 18:06:05;;;;;;;3.47;2.08;;;;;;;28.32;42.57;100694.59;10477949;27;96791;-79
2023/10/06 18:11:09;;;;;;;2.60;2.08;;;;;;;28.08;43.34;100698.00;10498095;27;96761;-79
2023/10/06 18:16:13;;;;;;;2.92;2.15;;;;;;;27.90;44.47;100699.09;10498861;27;96651;-79
2023/10/06 18:21:18;;;;;;;2.53;1.92;;;;;;;27.70;45.23;100703.84;10497836;27;97607;-79
2023/10/06 18:26:21;;;;;;;2.97;1.73;;;;;;;27.50;45.93;100712.28;10458467;27;97272;-79
2023/10/06 18:31:29;;;;;;;3.72;2.05;;;;;;;27.23;46.88;100712.44;10413463;28;97236;-79
2023/10/06 18:36:32;;;;;;;5.05;2.17;;;;;;;27.08;47.63;100727.50;10413532;27;96996;-79
2023/10/06 18:41:37;;;;;;;4.22;2.03;;;;;;;26.88;48.05;100730.31;10449323;27;96772;-79
2023/10/06 18:46:43;;;;;;;4.45;2.38;;;;;;;26.77;48.23;100730.50;10456523;27;96843;-79
2023/10/06 18:51:47;;;;;;;6.32;2.42;;;;;;;26.56;48.61;100732.63;10455682;27;97427;-79
2023/10/06 18:56:51;;;;;;;3.22;2.25;;;;;;;26.45;49.03;100735.56;10456082;27;96596;-79
2023/10/06 19:01:56;;;;;;;5.68;2.65;;;;;;;26.35;49.65;100734.69;10453881;27;96950;-79
2023/10/06 19:07:00;;;;;;;3.35;2.33;;;;;;;26.19;49.92;100734.50;10455002;27;96805;-79
2023/10/06 19:12:04;;;;;;;3.63;2.65;;;;;;;25.99;50.95;100746.34;10455396;27;96838;-79
2023/10/06 19:17:08;;;;;;;4.75;2.53;;;;;;;26.12;49.65;100744.19;10454852;27;96687;-79
2023/10/06 19:22:12;;;;;;;4.55;2.42;;;;;;;25.77;51.08;100749.41;10454743;27;96848;-79
2023/10/06 19:27:15;;;;;;;2.95;2.30;;;;;;;25.63;51.44;100749.81;10453214;27;96957;-80
2023/10/06 19:32:20;;;;;;;5.07;2.70;;;;;;;25.52;51.49;100764.28;10454531;27;96906;-79
2023/10/06 19:37:24;;;;;;;4.20;2.72;;;;;;;25.39;51.97;100766.44;10454877;27;97160;-79
2023/10/06 19:42:28;;;;;;;3.30;2.20;;;;;;;25.18;53.31;100770.25;10454259;27;96680;-79
2023/10/06 19:47:33;;;;;;;4.10;2.70;;;;;;;25.07;53.37;100771.22;10453182;27;96876;-79
2023/10/06 19:52:40;;;;;;;4.40;2.78;;;;;;;25.05;53.20;100767.84;10452290;27;97095;-77
2023/10/06 20:24:19;;;;;;;3.47;2.53;;;;;;;25.43;50.64;100802.03;10405371;27;98317;-77
2023/10/06 20:29:22;;;;;;;3.35;2.65;;;;;;;25.15;51.30;100802.88;10370709;28;98857;-77
2023/10/06 20:34:26;;;;;;;5.77;2.70;;;;;;;25.00;51.30;100797.03;10396010;28;96989;-76
2023/10/06 20:39:30;;;;;;;3.45;2.22;;;;;;;24.97;51.32;100801.78;10386946;28;98910;-76
2023/10/06 20:44:34;;;;;;;3.50;2.60;;;;;;;25.07;50.02;100810.81;10387144;28;97777;-76
2023/10/06 20:49:37;;;;;;;4.20;2.60;;;;;;;25.10;49.52;100807.81;10387802;28;96793;-75
2023/10/06 20:54:42;;;;;;;5.63;2.70;;;;;;;25.12;49.53;100805.84;10403719;27;96872;-76
2023/10/06 20:59:46;;;;;;;3.90;2.63;;;;;;;25.06;49.70;100807.25;10407323;28;96666;-76
2023/10/06 21:04:49;;;;;;;4.75;3.33;;;;;;;24.78;51.06;100814.25;10388858;28;96981;-76
2023/10/06 21:09:54;;;;;;;4.67;2.83;;;;;;;24.40;53.03;100816.78;10376392;27;97089;-76
2023/10/06 21:14:59;;;;;;;4.13;2.92;;;;;;;24.46;52.09;100821.63;10370459;28;97505;-76
2023/10/06 21:20:03;;;;;;;4.13;2.57;;;;;;;24.62;51.16;100819.28;10410750;27;96848;-76
2023/10/06 21:25:12;;;;;;;4.93;2.60;;;;;;;24.22;53.31;100815.66;10425338;27;96741;-76
2023/10/06 21:30:15;;;;;;;4.93;2.90;;;;;;;23.96;54.72;100810.84;10426105;28;97114;-76
2023/10/06 21:35:20;;;;;;;4.35;3.08;;;;;;;23.72;56.18;100821.03;10368645;28;97350;-76
2023/10/06 21:40:25;;;;;;;4.37;2.83;;;;;;;23.46;58.14;100825.84;10397229;28;99177;-75
2023/10/06 21:45:29;;;;;;;4.63;3.00;;;;;;;23.28;58.35;100819.34;10408027;28;97252;-75
2023/10/06 21:50:32;;;;;;;4.88;2.90;;;;;;;23.19;58.61;100826.34;10424613;28;96869;-75
2023/10/06 21:55:37;;;;;;;3.83;2.95;;;;;;;23.36;57.35;100836.53;10355643;28;96747;-75
2023/10/06 22:00:43;;;;;;;3.35;2.63;;;;;;;23.51;56.24;100837.09;10396457;28;96829;-75
2023/10/06 22:05:47;;;;;;;5.45;2.83;;;;;;;23.52;55.92;100841.47;10424114;28;97117;-75
2023/10/06 22:10:54;;;;;;;5.13;2.78;;;;;;;23.43;56.42;100848.47;10391034;28;96828;-75
2023/10/06 22:15:57;;;;;;;5.97;3.33;;;;;;;23.19;57.48;100844.28;10405418;28;98523;-75
2023/10/06 22:21:00;;;;;;;3.60;2.63;;;;;;;23.25;56.63;100833.88;10386832;28;96861;-75
2023/10/06 22:26:05;;;;;;;5.00;2.90;;;;;;;23.21;56.82;100835.13;10393572;28;96896;-75
2023/10/06 22:31:10;;;;;;;4.50;3.05;;;;;;;23.48;54.79;100831.94;10405908;28;97307;-75
2023/10/06 22:36:14;;;;;;;5.03;2.97;;;;;;;23.24;56.24;100832.16;10400509;27;98612;-75
2023/10/06 22:41:20;;;;;;;3.50;2.53;;;;;;;23.09;56.71;100840.63;10401888;28;97027;-75
2023/10/06 22:46:24;;;;;;;4.22;2.95;;;;;;;23.03;56.77;100835.75;10380575;28;96966;-75
2023/10/06 22:51:28;;;;;;;4.57;2.60;;;;;;;23.10;56.38;100832.47;10411706;28;97077;-75
2023/10/06 22:56:34;;;;;;;4.67;2.77;;;;;;;23.19;56.16;100839.75;10404355;28;97248;-75
2023/10/06 23:01:37;;;;;;;4.72;2.97;;;;;;;23.24;55.79;100844.75;10391797;28;97238;-75
2023/10/06 23:06:40;;;;;;;4.77;2.60;;;;;;;23.20;55.65;100828.03;10390806;28;96941;-75
2023/10/06 23:11:45;;;;;;;4.47;2.80;;;;;;;23.21;56.08;100836.94;10411262;28;96926;-75
2023/10/06 23:16:48;;;;;;;3.53;2.67;;;;;;;23.21;55.69;100831.56;10389604;28;98018;-75
2023/10/06 23:21:52;;;;;;;3.63;2.60;;;;;;;23.12;55.82;100832.31;10390283;28;96798;-75
2023/10/06 23:26:57;;;;;;;5.75;3.13;;;;;;;23.24;55.49;100836.69;10404621;28;96745;-75
2023/10/06 23:32:00;;;;;;;4.13;2.83;;;;;;;23.13;55.95;100829.50;10410267;28;96694;-75
2023/10/06 23:37:05;;;;;;;4.47;2.70;;;;;;;23.09;55.80;100827.22;10375400;28;96830;-75
2023/10/06 23:42:11;;;;;;;3.45;2.60;;;;;;;22.91;56.51;100839.44;10370388;28;96764;-75
2023/10/06 23:47:18;;;;;;;5.00;3.08;;;;;;;23.09;55.65;100832.59;10391116;27;97763;-75
2023/10/06 23:52:22;;;;;;;3.95;3.08;;;;;;;23.26;54.94;100826.66;10374240;28;96776;-74
2023/10/06 23:57:27;;;;;;;3.57;2.53;;;;;;;23.34;54.65;100824.19;10364769;28;97291;-75
